Wetterdaten: Woche 30.10.06 - 05.11.06 (KW44)
Datum Zeit Temperatur Luftfeuchte Luftdruck Niederschlag Windrichtung Wind
30.10.2006 00:00 9,1 C 89 % 1024 hPa 0,0 l/m NW 1,4 km/h (1 Bft)
30.10.2006 01:00 7,5 C 94 % 1024 hPa 0,0 l/m N 0,0 km/h (0 Bft)
30.10.2006 02:00 6,1 C 98 % 1024 hPa 0,0 l/m N 0,0 km/h (0 Bft)
30.10.2006 03:00 5,2 C 100 % 1024 hPa 0,0 l/m N 0,0 km/h (0 Bft)
30.10.2006 04:00 4,4 C 100 % 1024 hPa 0,0 l/m N 0,0 km/h (0 Bft)
30.10.2006 05:00 4,0 C 100 % 1024 hPa 0,0 l/m N 0,0 km/h (0 Bft)
30.10.2006 06:00 4,4 C 100 % 1024 hPa 0,0 l/m N 0,0 km/h (0 Bft)
30.10.2006 07:00 4,5 C 100 % 1024 hPa 0,0 l/m NW 1,1 km/h (0 Bft)
30.10.2006 08:00 6,1 C 100 % 1024 hPa 0,0 l/m NW 1,2 km/h (1 Bft)
30.10.2006 09:00 7,8 C 99 % 1024 hPa 0,0 l/m N 3,8 km/h (1 Bft)
30.10.2006 10:00 9,5 C 84 % 1024 hPa 0,0 l/m N 5,6 km/h (1 Bft)
30.10.2006 11:00 10,9 C 69 % 1024 hPa 0,0 l/m O-NO 5,1 km/h (1 Bft)
30.10.2006 12:00 12,5 C 61 % 1023 hPa 0,0 l/m O 3,7 km/h (1 Bft)
30.10.2006 13:00 13,7 C 59 % 1022 hPa 0,0 l/m S-SW 3,5 km/h (1 Bft)
30.10.2006 14:00 13,7 C 59 % 1021 hPa 0,0 l/m N 3,4 km/h (1 Bft)
30.10.2006 15:00 13,0 C 60 % 1021 hPa 0,0 l/m N-NO 7,5 km/h (2 Bft)
30.10.2006 16:00 12,1 C 65 % 1021 hPa 0,0 l/m N-NO 6,1 km/h (2 Bft)
30.10.2006 17:00 10,1 C 74 % 1021 hPa 0,0 l/m N 0,0 km/h (0 Bft)
30.10.2006 18:00 8,0 C 86 % 1021 hPa 0,0 l/m NW 0,9 km/h (0 Bft)
30.10.2006 19:00 7,0 C 92 % 1020 hPa 0,0 l/m N 0,0 km/h (0 Bft)
30.10.2006 20:00 6,5 C 97 % 1020 hPa 0,0 l/m NW 2,5 km/h (1 Bft)
30.10.2006 21:00 6,1 C 98 % 1020 hPa 0,0 l/m W-NW 0,9 km/h (0 Bft)
30.10.2006 22:00 5,5 C 99 % 1019 hPa 0,0 l/m W-NW 0,2 km/h (0 Bft)
30.10.2006 23:00 4,7 C 99 % 1019 hPa 0,0 l/m N 0,0 km/h (0 Bft)
31.10.2006 00:00 4,3 C 100 % 1018 hPa 0,0 l/m W-NW 0,3 km/h (0 Bft)
31.10.2006 01:00 4,0 C 100 % 1018 hPa 0,0 l/m NW 0,2 km/h (0 Bft)
31.10.2006 02:00 3,5 C 100 % 1017 hPa 0,0 l/m N 0,0 km/h (0 Bft)
31.10.2006 03:00 3,1 C 100 % 1017 hPa 0,0 l/m N 0,0 km/h (0 Bft)
31.10.2006 04:00 2,6 C 100 % 1016 hPa 0,0 l/m N 0,0 km/h (0 Bft)
31.10.2006 05:00 2,0 C 100 % 1016 hPa 0,0 l/m S 0,2 km/h (0 Bft)
31.10.2006 06:00 3,0 C 100 % 1016 hPa 0,0 l/m S-SW 3,0 km/h (1 Bft)
31.10.2006 07:00 5,4 C 100 % 1016 hPa 0,0 l/m O-SO 3,1 km/h (1 Bft)
31.10.2006 08:00 7,1 C 100 % 1015 hPa 0,0 l/m S 9,5 km/h (2 Bft)
31.10.2006 09:00 7,8 C 100 % 1015 hPa 0,0 l/m S 8,5 km/h (2 Bft)
31.10.2006 10:00 8,7 C 100 % 1015 hPa 0,0 l/m S 10,2 km/h (2 Bft)
31.10.2006 11:00 10,1 C 100 % 1014 hPa 0,0 l/m S 11,3 km/h (2 Bft)
31.10.2006 12:00 12,6 C 84 % 1013 hPa 0,0 l/m S-SW 11,7 km/h (2 Bft)
31.10.2006 13:00 13,8 C 75 % 1013 hPa 0,0 l/m S-SW 13,5 km/h (3 Bft)
31.10.2006 14:00 13,1 C 81 % 1012 hPa 0,0 l/m S 12,6 km/h (3 Bft)
31.10.2006 15:00 13,4 C 77 % 1012 hPa 0,0 l/m S-SW 12,0 km/h (2 Bft)
31.10.2006 16:00 12,7 C 81 % 1011 hPa 0,0 l/m S-SW 12,5 km/h (3 Bft)
31.10.2006 17:00 12,3 C 81 % 1012 hPa 0,0 l/m SW 12,8 km/h (3 Bft)
31.10.2006 18:00 11,6 C 85 % 1012 hPa 0,0 l/m S-SW 10,9 km/h (2 Bft)
31.10.2006 19:00 11,2 C 86 % 1012 hPa 0,0 l/m S-SW 11,6 km/h (2 Bft)
31.10.2006 20:00 12,7 C 74 % 1012 hPa 0,0 l/m SW 11,0 km/h (2 Bft)
31.10.2006 21:00 12,9 C 72 % 1012 hPa 0,0 l/m SW 10,9 km/h (2 Bft)
31.10.2006 22:00 12,7 C 73 % 1012 hPa 0,0 l/m SW 9,1 km/h (2 Bft)
31.10.2006 23:00 12,8 C 73 % 1012 hPa 0,0 l/m SW 11,4 km/h (2 Bft)
01.11.2006 00:00 12,8 C 68 % 1012 hPa 0,0 l/m W-SW 11,7 km/h (2 Bft)
01.11.2006 01:00 12,2 C 67 % 1012 hPa 0,0 l/m W 14,6 km/h (3 Bft)
01.11.2006 02:00 11,2 C 67 % 1012 hPa 0,0 l/m W 11,1 km/h (2 Bft)
01.11.2006 03:00 10,6 C 68 % 1012 hPa 0,0 l/m W 14,6 km/h (3 Bft)
01.11.2006 04:00 9,8 C 61 % 1013 hPa 0,0 l/m W 11,7 km/h (2 Bft)
01.11.2006 05:00 9,3 C 59 % 1013 hPa 0,0 l/m W 11,7 km/h (2 Bft)
01.11.2006 06:00 9,0 C 62 % 1014 hPa 0,0 l/m W 11,0 km/h (2 Bft)
01.11.2006 07:00 6,7 C 79 % 1016 hPa 0,0 l/m W 10,7 km/h (2 Bft)
01.11.2006 08:00 6,5 C 76 % 1016 hPa 0,0 l/m W 10,5 km/h (2 Bft)
01.11.2006 09:00 6,8 C 72 % 1017 hPa 0,0 l/m NW 10,1 km/h (2 Bft)
01.11.2006 10:00 7,6 C 62 % 1018 hPa 0,0 l/m W 12,8 km/h (3 Bft)
01.11.2006 11:00 8,3 C 53 % 1018 hPa 0,0 l/m W 17,2 km/h (3 Bft)
01.11.2006 12:00 8,2 C 50 % 1018 hPa 0,0 l/m W-NW 14,9 km/h (3 Bft)
01.11.2006 13:00 8,9 C 44 % 1019 hPa 0,0 l/m W 13,9 km/h (3 Bft)
01.11.2006 14:00 8,1 C 47 % 1019 hPa 0,0 l/m W 14,0 km/h (3 Bft)
01.11.2006 15:00 7,7 C 48 % 1020 hPa 0,0 l/m W 14,7 km/h (3 Bft)
01.11.2006 16:00 5,3 C 64 % 1020 hPa 0,0 l/m W 8,7 km/h (2 Bft)
01.11.2006 17:00 3,9 C 71 % 1021 hPa 0,0 l/m W-SW 5,8 km/h (2 Bft)
01.11.2006 18:00 4,2 C 68 % 1022 hPa 0,0 l/m W 12,3 km/h (3 Bft)
01.11.2006 19:00 3,5 C 75 % 1022 hPa 0,0 l/m W 10,7 km/h (2 Bft)
01.11.2006 20:00 3,0 C 77 % 1023 hPa 0,0 l/m W 10,9 km/h (2 Bft)
01.11.2006 21:00 2,6 C 77 % 1023 hPa 0,0 l/m W 11,2 km/h (2 Bft)
01.11.2006 22:00 2,1 C 78 % 1023 hPa 0,0 l/m W 8,7 km/h (2 Bft)
01.11.2006 23:00 2,0 C 76 % 1024 hPa 0,0 l/m NW 10,4 km/h (2 Bft)
02.11.2006 00:00 1,8 C 75 % 1024 hPa 0,0 l/m W 8,8 km/h (2 Bft)
02.11.2006 01:00 1,4 C 76 % 1025 hPa 0,0 l/m W 8,3 km/h (2 Bft)
02.11.2006 02:00 1,2 C 76 % 1025 hPa 0,0 l/m W 10,1 km/h (2 Bft)
02.11.2006 03:00 1,2 C 69 % 1026 hPa 0,0 l/m NW 7,6 km/h (2 Bft)
02.11.2006 04:00 0,8 C 74 % 1027 hPa 0,0 l/m N 7,4 km/h (2 Bft)
02.11.2006 05:00 -1,1 C 78 % 1027 hPa 0,0 l/m NW 9,4 km/h (2 Bft)
02.11.2006 06:00 -2,2 C 74 % 1028 hPa 0,0 l/m NW 2,5 km/h (1 Bft)
02.11.2006 07:00 -3,2 C 82 % 1028 hPa 0,0 l/m W-SW 0,9 km/h (0 Bft)
02.11.2006 08:00 -2,8 C 86 % 1029 hPa 0,0 l/m S 1,6 km/h (1 Bft)
02.11.2006 09:00 -0,9 C 69 % 1029 hPa 0,0 l/m W 3,1 km/h (1 Bft)
02.11.2006 10:00 0,9 C 51 % 1029 hPa 0,0 l/m W 3,9 km/h (1 Bft)
02.11.2006 11:00 2,1 C 44 % 1029 hPa 0,0 l/m S 5,9 km/h (2 Bft)
02.11.2006 12:00 4,1 C 38 % 1029 hPa 0,0 l/m S-SW 5,5 km/h (1 Bft)
02.11.2006 13:00 4,8 C 33 % 1028 hPa 0,0 l/m W 7,5 km/h (2 Bft)
02.11.2006 14:00 5,3 C 31 % 1027 hPa 0,0 l/m W 9,5 km/h (2 Bft)
02.11.2006 15:00 4,4 C 33 % 1027 hPa 0,0 l/m W-SW 9,1 km/h (2 Bft)
02.11.2006 16:00 3,5 C 37 % 1027 hPa 0,0 l/m W-SW 8,7 km/h (2 Bft)
02.11.2006 17:00 1,9 C 42 % 1027 hPa 0,0 l/m W-SW 7,2 km/h (2 Bft)
02.11.2006 18:00 1,6 C 43 % 1027 hPa 0,0 l/m W-SW 8,3 km/h (2 Bft)
02.11.2006 19:00 1,9 C 44 % 1027 hPa 0,0 l/m W-SW 8,5 km/h (2 Bft)
02.11.2006 20:00 2,1 C 52 % 1027 hPa 0,0 l/m W-SW 10,2 km/h (2 Bft)
02.11.2006 21:00 1,9 C 58 % 1028 hPa 0,0 l/m W 8,8 km/h (2 Bft)
02.11.2006 22:00 1,1 C 63 % 1028 hPa 0,0 l/m S-SW 5,3 km/h (1 Bft)
02.11.2006 23:00 0,5 C 60 % 1027 hPa 0,0 l/m W-SW 5,5 km/h (1 Bft)
03.11.2006 00:00 0,6 C 61 % 1027 hPa 0,0 l/m W-SW 8,2 km/h (2 Bft)
03.11.2006 01:00 0,6 C 66 % 1027 hPa 0,0 l/m W-SW 6,7 km/h (2 Bft)
03.11.2006 02:00 0,3 C 78 % 1027 hPa 0,0 l/m SW 5,8 km/h (2 Bft)
03.11.2006 03:00 0,2 C 86 % 1027 hPa 0,0 l/m W-SW 7,4 km/h (2 Bft)
03.11.2006 04:00 -0,2 C 88 % 1027 hPa 0,0 l/m S 5,1 km/h (1 Bft)
03.11.2006 05:00 -0,7 C 89 % 1027 hPa 0,0 l/m S-SW 3,1 km/h (1 Bft)
03.11.2006 06:00 -0,5 C 91 % 1027 hPa 0,0 l/m S-SW 1,3 km/h (1 Bft)
03.11.2006 07:00 -0,5 C 91 % 1028 hPa 0,0 l/m N 0,1 km/h (0 Bft)
03.11.2006 08:00 0,2 C 95 % 1028 hPa 0,0 l/m W 2,8 km/h (1 Bft)
03.11.2006 09:00 1,5 C 91 % 1029 hPa 0,0 l/m W 7,2 km/h (2 Bft)
03.11.2006 10:00 2,7 C 79 % 1029 hPa 0,0 l/m W 6,5 km/h (2 Bft)
03.11.2006 11:00 2,8 C 84 % 1029 hPa 0,0 l/m W 5,1 km/h (1 Bft)
03.11.2006 12:00 4,4 C 69 % 1029 hPa 0,0 l/m NW 9,0 km/h (2 Bft)
03.11.2006 13:00 4,2 C 68 % 1028 hPa 0,0 l/m N-NW 9,2 km/h (2 Bft)
03.11.2006 14:00 2,7 C 82 % 1028 hPa 0,0 l/m W-NW 5,8 km/h (2 Bft)
03.11.2006 15:00 3,6 C 71 % 1028 hPa 0,0 l/m W 6,0 km/h (2 Bft)
03.11.2006 16:00 2,9 C 70 % 1029 hPa 0,0 l/m W-NW 1,8 km/h (1 Bft)
03.11.2006 17:00 1,5 C 80 % 1029 hPa 0,0 l/m N 0,0 km/h (0 Bft)
03.11.2006 18:00 0,5 C 85 % 1030 hPa 0,0 l/m S 0,5 km/h (0 Bft)
03.11.2006 19:00 -0,3 C 91 % 1030 hPa 0,0 l/m N 0,0 km/h (0 Bft)
03.11.2006 20:00 0,0 C 95 % 1031 hPa 0,0 l/m N 0,0 km/h (0 Bft)
03.11.2006 21:00 -0,6 C 95 % 1031 hPa 0,0 l/m N 0,0 km/h (0 Bft)
03.11.2006 22:00 -1,6 C 96 % 1031 hPa 0,0 l/m N 0,0 km/h (0 Bft)
03.11.2006 23:00 -2,2 C 97 % 1031 hPa 0,0 l/m N 0,0 km/h (0 Bft)
04.11.2006 00:00 -2,4 C 99 % 1031 hPa 0,0 l/m S 0,6 km/h (0 Bft)
04.11.2006 01:00 -2,3 C 100 % 1031 hPa 0,0 l/m N 0,0 km/h (0 Bft)
04.11.2006 02:00 -1,8 C 100 % 1031 hPa 0,0 l/m N 0,0 km/h (0 Bft)
04.11.2006 03:00 -1,1 C 100 % 1031 hPa 0,0 l/m SO 0,2 km/h (0 Bft)
04.11.2006 04:00 -0,3 C 100 % 1031 hPa 0,0 l/m SO 1,0 km/h (0 Bft)
04.11.2006 05:00 0,3 C 100 % 1032 hPa 0,0 l/m S-SW 2,5 km/h (1 Bft)
04.11.2006 06:00 0,3 C 100 % 1032 hPa 0,0 l/m S-SW 4,6 km/h (1 Bft)
04.11.2006 07:00 0,4 C 100 % 1032 hPa 0,0 l/m S 2,3 km/h (1 Bft)
04.11.2006 08:00 0,7 C 100 % 1033 hPa 0,0 l/m S-SW 1,6 km/h (1 Bft)
04.11.2006 09:00 1,4 C 100 % 1033 hPa 1,0 l/m S-SW 1,6 km/h (1 Bft)
04.11.2006 10:00 2,1 C 96 % 1033 hPa 0,0 l/m S-SW 2,2 km/h (1 Bft)
04.11.2006 11:00 3,4 C 87 % 1033 hPa 0,0 l/m S 7,9 km/h (2 Bft)
04.11.2006 12:00 6,3 C 72 % 1033 hPa 0,0 l/m S-SW 9,3 km/h (2 Bft)
04.11.2006 13:00 7,3 C 57 % 1033 hPa 0,0 l/m S-SW 8,2 km/h (2 Bft)
04.11.2006 14:00 6,7 C 59 % 1032 hPa 0,0 l/m S-SW 7,6 km/h (2 Bft)
04.11.2006 15:00 6,4 C 58 % 1032 hPa 0,0 l/m W-SW 5,4 km/h (1 Bft)
04.11.2006 16:00 5,9 C 63 % 1032 hPa 0,0 l/m W-SW 0,5 km/h (0 Bft)
04.11.2006 17:00 4,7 C 71 % 1032 hPa 0,0 l/m W-SW 3,2 km/h (1 Bft)
04.11.2006 18:00 3,9 C 78 % 1032 hPa 0,0 l/m W-SW 6,2 km/h (2 Bft)
04.11.2006 19:00 2,8 C 82 % 1032 hPa 0,0 l/m S-SW 0,6 km/h (0 Bft)
04.11.2006 20:00 1,3 C 87 % 1032 hPa 0,0 l/m S-SW 0,6 km/h (0 Bft)
04.11.2006 21:00 0,2 C 91 % 1032 hPa 0,0 l/m N 0,0 km/h (0 Bft)
04.11.2006 22:00 -0,4 C 94 % 1032 hPa 0,0 l/m N 0,0 km/h (0 Bft)
04.11.2006 23:00 -1,0 C 96 % 1032 hPa 0,0 l/m N 0,0 km/h (0 Bft)
05.11.2006 00:00 -1,6 C 97 % 1032 hPa 0,0 l/m N 0,0 km/h (0 Bft)
05.11.2006 01:00 -2,1 C 98 % 1032 hPa 0,0 l/m N 0,0 km/h (0 Bft)
05.11.2006 02:00 -2,4 C 99 % 1032 hPa 0,0 l/m N 0,0 km/h (0 Bft)
05.11.2006 03:00 -2,1 C 100 % 1031 hPa 0,0 l/m S 2,9 km/h (1 Bft)
05.11.2006 04:00 -1,0 C 100 % 1031 hPa 0,0 l/m S 4,9 km/h (1 Bft)
05.11.2006 05:00 -0,9 C 100 % 1031 hPa 0,0 l/m S-SW 1,8 km/h (1 Bft)
05.11.2006 06:00 -1,0 C 100 % 1031 hPa 0,0 l/m S-SW 6,5 km/h (2 Bft)
05.11.2006 07:00 0,1 C 100 % 1031 hPa 0,0 l/m S 10,6 km/h (2 Bft)
05.11.2006 08:00 0,6 C 100 % 1032 hPa 0,0 l/m S-SW 2,4 km/h (1 Bft)
05.11.2006 09:00 1,4 C 100 % 1032 hPa 0,0 l/m S 9,8 km/h (2 Bft)
05.11.2006 10:00 2,4 C 100 % 1032 hPa 0,0 l/m S 12,2 km/h (2 Bft)
05.11.2006 11:00 3,5 C 96 % 1032 hPa 0,0 l/m S-SW 9,8 km/h (2 Bft)
05.11.2006 12:00 5,1 C 80 % 1031 hPa 0,0 l/m S 8,3 km/h (2 Bft)
05.11.2006 13:00 6,6 C 68 % 1030 hPa 0,0 l/m S-SW 9,8 km/h (2 Bft)
05.11.2006 14:00 7,8 C 57 % 1030 hPa 0,0 l/m S-SW 8,8 km/h (2 Bft)
05.11.2006 15:00 7,7 C 60 % 1029 hPa 0,0 l/m S-SW 6,9 km/h (2 Bft)
05.11.2006 16:00 6,4 C 71 % 1029 hPa 0,0 l/m S-SW 3,2 km/h (1 Bft)
05.11.2006 17:00 5,8 C 64 % 1029 hPa 0,0 l/m W-SW 4,8 km/h (1 Bft)
05.11.2006 18:00 4,7 C 74 % 1030 hPa 0,0 l/m O-SO 2,2 km/h (1 Bft)
05.11.2006 19:00 3,9 C 80 % 1031 hPa 0,0 l/m S 0,8 km/h (0 Bft)
05.11.2006 20:00 3,3 C 81 % 1030 hPa 0,0 l/m SW 0,6 km/h (0 Bft)
05.11.2006 21:00 2,9 C 85 % 1031 hPa 0,0 l/m W 3,8 km/h (1 Bft)
05.11.2006 22:00 3,5 C 84 % 1030 hPa 0,0 l/m W-SW 3,3 km/h (1 Bft)
05.11.2006 23:00 3,7 C 81 % 1030 hPa 0,0 l/m S 3,8 km/h (1 Bft)
Min-Datum _ 02.11.06 02.11.06 31.10.06 - - 30.10.06
_ Min-Zeit 07:50 14:09 16:04 - - 00:13
Minimum _ -3,4 C 31 % 1011 hPa - - 0,0 km/h (0 Bft)
Max-Datum _ 31.10.06 30.10.06 04.11.06 04.11.06 - 01.11.06
_ Max-Zeit 12:51 03:05 08:04 09:18 - 16:06
Maximum _ 14,4 C 100 % 1033 hPa 1,0 l/m - 31,0 km/h
W (5 Bft)
Durchschnitt _ 4,4 C 79 % 1025 hPa #1,0 l/m W 5,7 km/h (1 Bft)

Durchschnitt Minimum Temp.3,9 C
Durchschnitt Maximum Temp.4,8 C